Time;durP1;ratioP1;P1;durP2;ratioP2;P2;SDS_P1;SDS_P2;PMS_P1;PMS_P2;Temp;Humidity;BMP_temperature;BMP_pressure;BME280_temperature;BME280_humidity;BME280_pressure;Samples;Min_cycle;Max_cycle;Signal;HPM_P1;HPM_P2
2021/12/13 00:02:10;;;;;;;7.43;4.23;;;5.70;99.90;;;6.40;100.00;99205.78;5012193;28;20537;-79
2021/12/13 00:04:48;;;;;;;5.00;3.73;;;5.70;99.90;;;6.41;100.00;99207.44;5005168;28;20451;-80
2021/12/13 00:07:27;;;;;;;4.03;2.90;;;5.70;99.90;;;6.40;100.00;99203.19;5009143;28;20451;-80
2021/12/13 00:10:04;;;;;;;4.90;3.10;;;5.70;99.90;;;6.41;100.00;99204.03;5004820;28;20459;-80
2021/12/13 00:12:41;;;;;;;4.50;3.50;;;5.70;99.90;;;6.41;100.00;99193.63;5007442;28;20465;-79
2021/12/13 00:15:25;;;;;;;4.10;3.20;;;5.70;99.90;;;6.43;100.00;99189.09;5008468;28;20501;-79
2021/12/13 00:17:56;;;;;;;6.43;4.63;;;5.80;99.90;;;6.41;100.00;99199.66;5005178;28;20973;-80
2021/12/13 00:20:37;;;;;;;5.20;2.90;;;5.80;99.90;;;6.41;100.00;99201.41;5005708;28;20832;-79
2021/12/13 00:23:20;;;;;;;5.83;3.40;;;5.80;99.90;;;6.41;100.00;99194.44;5007730;28;20485;-80
2021/12/13 00:25:54;;;;;;;4.07;2.90;;;5.70;99.90;;;6.42;100.00;99196.06;5008889;28;20490;-80
2021/12/13 00:28:33;;;;;;;4.50;3.40;;;5.70;99.90;;;6.43;100.00;99189.94;5009778;28;20496;-79
2021/12/13 00:31:23;;;;;;;5.10;4.33;;;5.80;99.90;;;6.45;100.00;99195.84;5001261;28;21050;-80
2021/12/13 00:34:31;;;;;;;4.63;3.20;;;5.90;99.90;;;6.45;100.00;99185.44;5006269;28;20483;-79
2021/12/13 00:37:10;;;;;;;8.87;4.70;;;5.90;99.90;;;6.46;100.00;99187.06;4968653;28;20469;-80
2021/12/13 00:39:48;;;;;;;5.57;4.37;;;5.90;99.90;;;6.44;100.00;99183.78;5003251;28;20544;-80
2021/12/13 00:42:21;;;;;;;28.87;5.20;;;5.80;99.90;;;6.44;100.00;99180.38;5006594;28;20459;-80
2021/12/13 00:45:00;;;;;;;3.67;3.10;;;5.70;99.90;;;6.44;100.00;99188.16;5004351;28;20513;-79
2021/12/13 00:47:33;;;;;;;4.13;3.13;;;5.70;99.90;;;6.44;100.00;99190.75;5010610;28;20960;-79
2021/12/13 00:50:12;;;;;;;6.10;4.00;;;5.60;99.90;;;6.43;100.00;99200.31;5009207;28;20461;-80
2021/12/13 00:52:45;;;;;;;4.03;3.33;;;5.70;99.90;;;6.43;100.00;99209.88;5011287;28;20439;-80
2021/12/13 00:55:21;;;;;;;4.40;3.70;;;5.60;99.90;;;6.41;100.00;99204.03;5007900;28;20462;-80
2021/12/13 00:58:08;;;;;;;3.77;3.20;;;5.60;99.90;;;6.40;100.00;99207.56;5003443;28;20470;-79
2021/12/13 01:00:45;;;;;;;3.90;3.10;;;5.60;99.90;;;6.39;100.00;99201.53;5004298;28;20533;-80
2021/12/13 01:03:19;;;;;;;4.57;3.33;;;5.60;99.90;;;6.38;100.00;99215.50;5007678;28;20455;-79
2021/12/13 01:06:38;;;;;;;4.60;3.10;;;5.60;99.90;;;6.37;100.00;99213.03;5039323;28;20463;-80
2021/12/13 01:10:31;;;;;;;5.70;3.00;;;5.60;99.90;;;6.36;100.00;99204.41;5002173;28;20463;-80
2021/12/13 01:13:02;;;;;;;5.90;4.20;;;5.60;99.90;;;6.35;100.00;99205.34;4946683;28;20465;-80
2021/12/13 01:15:45;;;;;;;6.80;3.50;;;5.50;99.90;;;6.36;100.00;99212.19;4994939;28;21006;-80
2021/12/13 01:18:29;;;;;;;4.30;3.50;;;5.60;99.90;;;6.36;100.00;99217.38;5005247;28;20529;-80
2021/12/13 01:21:13;;;;;;;4.27;3.10;;;5.60;99.90;;;6.33;100.00;99225.44;4999240;28;21007;-79
2021/12/13 01:23:52;;;;;;;4.93;3.30;;;5.50;99.90;;;6.33;100.00;99227.22;5004241;28;21009;-79
2021/12/13 01:26:37;;;;;;;4.03;3.13;;;5.60;99.90;;;6.35;100.00;99228.72;5009859;28;20483;-80
2021/12/13 01:29:13;;;;;;;4.40;3.83;;;5.60;99.90;;;6.36;100.00;99230.38;5003614;28;20496;-79
2021/12/13 01:31:52;;;;;;;6.10;3.47;;;5.60;99.90;;;6.35;100.00;99231.31;5008472;28;20870;-80
2021/12/13 01:34:24;;;;;;;3.20;2.80;;;5.50;99.90;;;6.35;100.00;99236.53;5007318;28;20498;-80
2021/12/13 01:37:07;;;;;;;5.67;4.00;;;5.50;99.90;;;6.34;100.00;99237.50;5010547;28;20443;-80
2021/12/13 01:39:42;;;;;;;7.20;3.70;;;5.50;99.90;;;6.35;100.00;99244.31;5012123;28;20509;-80
2021/12/13 01:42:17;;;;;;;7.73;4.27;;;5.60;99.90;;;6.36;100.00;99247.72;5005890;28;20541;-80
2021/12/13 01:44:58;;;;;;;5.70;4.03;;;5.60;99.90;;;6.36;100.00;99239.94;5008544;28;20490;-79
2021/12/13 01:47:35;;;;;;;4.33;3.50;;;5.60;99.90;;;6.37;100.00;99245.03;5006158;28;20550;-79
2021/12/13 01:50:16;;;;;;;6.73;5.37;;;5.60;99.90;;;6.38;100.00;99241.47;5004450;28;20466;-80
2021/12/13 01:52:49;;;;;;;6.90;4.60;;;5.70;99.90;;;6.40;100.00;99243.94;5006304;28;20451;-80
2021/12/13 01:55:24;;;;;;;5.60;4.30;;;5.70;99.90;;;6.36;100.00;99238.16;5004346;28;20459;-80
2021/12/13 01:58:35;;;;;;;5.97;3.70;;;5.60;99.90;;;6.35;100.00;99241.72;5005345;28;20612;-80
2021/12/13 02:01:11;;;;;;;5.73;3.60;;;5.70;99.90;;;6.36;100.00;99240.78;5006518;28;20494;-80
2021/12/13 02:03:56;;;;;;;5.50;4.30;;;5.60;99.90;;;6.35;100.00;99233.91;5003662;28;20459;-79
2021/12/13 02:06:36;;;;;;;6.33;3.93;;;5.60;99.90;;;6.37;100.00;99245.03;5005446;28;20597;-80
2021/12/13 02:09:14;;;;;;;5.33;4.17;;;5.60;99.90;;;6.35;100.00;99231.31;5008578;28;20522;-80
2021/12/13 02:11:51;;;;;;;6.53;3.60;;;5.60;99.90;;;6.32;100.00;99241.16;5005995;28;20498;-80
2021/12/13 02:14:28;;;;;;;8.97;4.90;;;5.50;99.90;;;6.32;100.00;99229.00;5004151;28;20489;-80
2021/12/13 02:17:10;;;;;;;4.60;3.83;;;5.60;99.90;;;6.33;100.00;99238.44;5004803;28;20813;-80
2021/12/13 02:19:53;;;;;;;4.50;3.33;;;5.60;99.90;;;6.32;100.00;99241.97;5011314;28;20489;-80
2021/12/13 02:22:54;;;;;;;5.30;4.47;;;5.60;99.90;;;6.32;100.00;99252.38;5004546;28;20467;-80
2021/12/13 02:25:30;;;;;;;6.97;4.23;;;5.50;99.90;;;6.32;100.00;99251.53;5003003;28;20493;-80
2021/12/13 02:28:09;;;;;;;5.20;3.83;;;5.50;99.90;;;6.30;100.00;99248.25;5007242;28;20520;-80
2021/12/13 02:30:44;;;;;;;5.27;4.23;;;5.50;99.90;;;6.31;100.00;99253.34;5003307;28;20464;-79
2021/12/13 02:33:24;;;;;;;5.13;4.00;;;5.60;99.90;;;6.31;100.00;99258.53;5003477;28;20462;-80
2021/12/13 02:35:59;;;;;;;6.80;3.60;;;5.60;99.90;;;6.31;100.00;99255.94;5007655;28;20454;-79
2021/12/13 02:38:31;;;;;;;5.80;3.77;;;5.50;99.90;;;6.31;100.00;99250.75;5009845;28;20948;-80
2021/12/13 02:41:03;;;;;;;5.77;3.93;;;5.50;99.90;;;6.33;100.00;99250.59;5003764;28;20557;-80
2021/12/13 02:43:40;;;;;;;5.27;3.60;;;5.50;99.90;;;6.31;100.00;99253.34;5008614;28;20482;-80
2021/12/13 02:46:10;;;;;;;5.53;4.33;;;5.50;99.90;;;6.30;100.00;99251.69;5008499;28;20446;-80
2021/12/13 02:48:45;;;;;;;5.33;3.93;;;5.50;99.90;;;6.31;100.00;99253.34;5003647;28;21014;-80
2021/12/13 02:51:22;;;;;;;6.90;4.03;;;5.50;99.90;;;6.27;100.00;99254.56;5006052;28;20489;-80
2021/12/13 02:54:01;;;;;;;4.60;3.60;;;5.50;99.90;;;6.28;100.00;99255.38;5005886;28;20495;-80
2021/12/13 02:56:39;;;;;;;7.60;3.70;;;5.50;99.90;;;6.30;100.00;99262.06;5005013;28;20566;-80
2021/12/13 02:59:12;;;;;;;4.57;3.53;;;5.50;99.90;;;6.30;100.00;99249.09;5004009;28;20462;-80
2021/12/13 03:01:49;;;;;;;6.20;4.60;;;5.50;99.90;;;6.26;100.00;99255.50;5001971;28;21084;-80
2021/12/13 03:04:25;;;;;;;7.30;4.40;;;5.50;99.90;;;6.23;100.00;99263.53;5008450;28;20561;-80
2021/12/13 03:07:06;;;;;;;5.20;4.50;;;5.40;99.90;;;6.25;100.00;99251.25;5010255;28;20499;-80
2021/12/13 03:09:42;;;;;;;5.83;4.40;;;5.50;99.90;;;6.27;100.00;99243.34;5005687;28;21034;-80
2021/12/13 03:12:19;;;;;;;4.53;3.50;;;5.50;99.90;;;6.28;100.00;99263.97;5006205;28;20474;-80
2021/12/13 03:14:56;;;;;;;5.43;4.00;;;5.50;99.90;;;6.28;100.00;99260.56;5006023;28;20489;-80
2021/12/13 03:17:34;;;;;;;5.20;4.27;;;5.50;99.90;;;6.29;100.00;99255.22;5005715;28;20461;-79
2021/12/13 03:20:31;;;;;;;8.10;4.37;;;5.60;99.90;;;6.29;100.00;99255.22;5002694;28;20487;-80
2021/12/13 03:23:25;;;;;;;4.70;3.87;;;5.50;99.90;;;6.28;100.00;99250.97;5006237;28;20467;-79
2021/12/13 03:26:48;;;;;;;6.97;4.53;;;5.50;99.90;;;6.24;100.00;99230.63;5007278;28;20517;-80
2021/12/13 03:29:26;;;;;;;4.90;4.20;;;5.40;99.90;;;6.26;100.00;99236.47;5011241;28;20513;-80
2021/12/13 03:32:01;;;;;;;5.70;4.10;;;5.50;99.90;;;6.24;100.00;99244.41;5000684;28;20538;-80
2021/12/13 03:34:36;;;;;;;5.63;4.40;;;5.40;99.90;;;6.22;100.00;99241.13;5005252;28;20469;-80
2021/12/13 03:37:15;;;;;;;7.67;4.87;;;5.40;99.90;;;6.23;100.00;99245.38;5009368;28;20455;-80
2021/12/13 03:39:50;;;;;;;4.23;3.40;;;5.40;99.90;;;6.24;100.00;99249.63;5011878;28;20497;-80
2021/12/13 03:42:35;;;;;;;8.70;4.47;;;5.40;99.90;;;6.25;100.00;99246.03;5012000;28;20973;-79
2021/12/13 03:45:17;;;;;;;4.63;3.20;;;5.50;99.90;;;6.26;100.00;99239.09;5009204;28;20489;-79
2021/12/13 03:47:52;;;;;;;6.80;4.10;;;5.50;99.90;;;6.26;100.00;99233.88;5014089;28;20447;-79
2021/12/13 03:50:29;;;;;;;4.17;3.70;;;5.50;99.90;;;6.27;100.00;99238.97;5007105;28;20454;-79
2021/12/13 03:53:06;;;;;;;4.63;3.90;;;5.50;99.90;;;6.27;100.00;99232.94;5007548;28;20488;-81
2021/12/13 03:55:39;;;;;;;7.50;4.37;;;5.50;99.90;;;6.27;100.00;99228.56;5005537;28;20816;-81
2021/12/13 03:58:17;;;;;;;4.17;3.70;;;5.50;99.90;;;6.28;100.00;99239.78;5022096;28;20526;-81
2021/12/13 04:01:10;;;;;;;8.50;4.50;;;5.50;99.90;;;6.28;100.00;99240.59;5006723;28;20808;-81
2021/12/13 04:03:43;;;;;;;6.00;4.03;;;5.50;99.90;;;6.28;100.00;99230.19;5004282;28;20550;-81
2021/12/13 04:06:17;;;;;;;3.80;3.23;;;5.50;99.90;;;6.29;100.00;99238.81;5001469;28;20471;-81
2021/12/13 04:08:53;;;;;;;7.80;4.00;;;5.50;99.90;;;6.27;100.00;99233.78;5004421;28;20460;-81
2021/12/13 04:11:28;;;;;;;9.57;3.97;;;5.50;99.90;;;6.29;100.00;99231.84;5003438;28;20470;-81
2021/12/13 04:14:10;;;;;;;5.53;4.30;;;5.50;99.90;;;6.30;100.00;99228.31;5007815;28;20462;-81
2021/12/13 04:16:50;;;;;;;4.70;3.90;;;5.50;99.90;;;6.30;100.00;99232.69;5007639;28;20470;-81
2021/12/13 04:19:24;;;;;;;16.73;3.70;;;5.50;99.90;;;6.30;100.00;99233.50;5009564;28;20989;-81
2021/12/13 04:21:59;;;;;;;6.40;4.27;;;5.50;99.90;;;6.29;100.00;99229.25;5004552;28;20649;-81
2021/12/13 04:24:39;;;;;;;4.90;4.10;;;5.50;99.90;;;6.31;100.00;99231.75;5011254;28;20459;-81
2021/12/13 04:27:19;;;;;;;6.20;4.20;;;5.50;99.90;;;6.29;100.00;99226.66;5008946;28;21011;-81
2021/12/13 04:29:59;;;;;;;5.00;3.90;;;5.50;99.90;;;6.29;100.00;99237.06;5007519;28;20495;-81
2021/12/13 04:32:36;;;;;;;4.93;3.60;;;5.50;99.90;;;6.30;100.00;99238.69;5011786;28;20501;-81
2021/12/13 04:35:11;;;;;;;6.33;4.33;;;5.50;99.90;;;6.30;100.00;99238.69;5005603;28;20458;-81
2021/12/13 04:37:47;;;;;;;10.73;6.23;;;5.50;99.90;;;6.30;100.00;99233.50;5008573;28;20458;-81
2021/12/13 04:40:27;;;;;;;5.87;4.97;;;5.50;99.90;;;6.30;100.00;99249.09;5004103;28;20468;-81
2021/12/13 04:43:03;;;;;;;7.23;5.10;;;5.50;99.90;;;6.32;100.00;99233.34;5005747;28;20498;-81
2021/12/13 04:45:41;;;;;;;5.93;4.60;;;5.70;99.90;;;6.32;100.00;99241.16;5004409;28;20558;-82
2021/12/13 04:48:17;;;;;;;9.93;6.83;;;5.60;99.90;;;6.32;100.00;99241.16;5005355;28;20471;-79
2021/12/13 04:50:54;;;;;;;9.60;6.40;;;5.60;99.90;;;6.32;100.00;99246.34;5009942;28;20462;-79
2021/12/13 04:53:27;;;;;;;7.60;4.63;;;5.60;99.90;;;6.32;100.00;99254.97;5010878;28;20584;-80
2021/12/13 04:56:02;;;;;;;5.40;4.10;;;5.50;99.90;;;6.32;100.00;99254.97;5008913;28;21026;-79
2021/12/13 04:58:33;;;;;;;7.37;4.50;;;5.50;99.90;;;6.33;100.00;99261.81;5010044;28;20485;-80
2021/12/13 05:01:10;;;;;;;7.23;4.70;;;5.60;99.90;;;6.33;100.00;99264.41;5007700;28;20490;-79
2021/12/13 05:03:46;;;;;;;6.70;4.10;;;5.60;99.90;;;6.34;100.00;99262.63;5009575;28;20490;-79
2021/12/13 05:06:21;;;;;;;5.03;4.33;;;5.60;99.90;;;6.33;100.00;99264.41;5008088;28;21027;-79
2021/12/13 05:08:56;;;;;;;5.70;4.20;;;5.60;99.90;;;6.33;100.00;99268.78;5009880;28;20951;-79
2021/12/13 05:11:33;;;;;;;5.57;4.00;;;5.60;99.90;;;6.35;100.00;99265.09;5006910;28;20455;-80
2021/12/13 05:14:06;;;;;;;5.57;4.00;;;5.60;99.90;;;6.34;100.00;99260.88;5006883;28;20979;-81
2021/12/13 05:16:46;;;;;;;9.27;4.77;;;5.60;99.90;;;6.32;100.00;99267.94;5006324;28;20550;-81
2021/12/13 05:19:27;;;;;;;6.53;4.43;;;5.60;99.90;;;6.32;100.00;99265.34;4996647;28;20468;-80
2021/12/13 05:22:02;;;;;;;5.47;4.03;;;5.60;99.90;;;6.32;100.00;99267.94;5004867;28;20490;-81
2021/12/13 05:24:42;;;;;;;10.00;5.33;;;5.60;99.90;;;6.33;100.00;99268.78;5002740;28;20462;-80
2021/12/13 05:27:16;;;;;;;9.37;5.13;;;5.60;99.90;;;6.32;100.00;99267.94;5007551;28;20999;-81
2021/12/13 05:29:50;;;;;;;18.30;9.03;;;5.60;99.90;;;6.32;100.00;99273.16;5005229;28;20966;-79
2021/12/13 05:32:35;;;;;;;26.73;11.03;;;5.60;99.90;;;6.32;100.00;99267.94;5004204;28;20470;-80
2021/12/13 05:35:23;;;;;;;5.47;3.93;;;5.60;99.90;;;6.33;100.00;99269.59;5008042;28;20532;-81
2021/12/13 05:38:00;;;;;;;5.20;4.03;;;5.60;99.90;;;6.32;100.00;99269.72;5007006;28;20455;-81
2021/12/13 05:40:41;;;;;;;5.13;4.10;;;5.60;99.90;;;6.33;100.00;99266.19;5003407;28;20450;-80
2021/12/13 05:43:21;;;;;;;5.60;4.10;;;5.60;99.90;;;6.33;100.00;99269.59;5008267;28;20581;-80
2021/12/13 05:45:58;;;;;;;9.50;4.77;;;5.60;99.90;;;6.32;100.00;99272.31;5007562;28;20470;-81
2021/12/13 05:48:47;;;;;;;7.20;4.47;;;5.70;99.90;;;6.33;100.00;99269.59;5005837;28;20462;-80
2021/12/13 05:51:30;;;;;;;6.47;4.23;;;5.60;99.90;;;6.33;100.00;99268.78;5006999;28;20486;-82
2021/12/13 05:54:06;;;;;;;5.67;3.83;;;5.60;99.90;;;6.34;100.00;99273.84;5004988;28;20541;-80
2021/12/13 05:56:44;;;;;;;300.03;129.90;;;5.60;99.90;;;6.33;100.00;99276.56;4999105;28;20502;-81
2021/12/13 05:59:22;;;;;;;11.30;6.10;;;5.70;99.90;;;6.33;100.00;99268.78;5005602;28;20471;-78
2021/12/13 06:02:12;;;;;;;7.33;4.10;;;5.70;99.90;;;6.35;100.00;99274.69;5010783;28;20451;-77
2021/12/13 06:04:56;;;;;;;7.60;5.40;;;5.60;99.90;;;6.32;100.00;99273.16;5010977;28;20520;-78
2021/12/13 06:07:32;;;;;;;7.83;5.27;;;5.60;99.90;;;6.34;100.00;99279.06;5011626;28;20451;-78
2021/12/13 06:10:10;;;;;;;7.67;5.07;;;5.60;99.90;;;6.33;100.00;99281.75;5010192;28;20458;-77
2021/12/13 06:12:47;;;;;;;5.33;4.10;;;5.50;99.90;;;6.33;100.00;99285.19;5007773;28;20451;-78
2021/12/13 06:15:27;;;;;;;6.40;4.13;;;5.50;99.90;;;6.35;100.00;99293.66;5007811;28;20545;-78
2021/12/13 06:18:13;;;;;;;5.63;4.67;;;5.50;99.90;;;6.32;100.00;99293.94;5011730;28;20800;-78
2021/12/13 06:20:54;;;;;;;12.63;5.03;;;5.50;99.90;;;6.27;100.00;99290.91;5006348;28;20477;-78
2021/12/13 06:23:27;;;;;;;7.33;4.67;;;5.60;99.90;;;6.30;100.00;99295.00;5011568;28;20831;-77
2021/12/13 06:26:02;;;;;;;6.27;4.63;;;5.50;99.90;;;6.27;100.00;99288.31;5011531;28;20531;-77
2021/12/13 06:28:37;;;;;;;11.83;4.73;;;5.50;99.90;;;6.26;100.00;99291.84;5011310;28;20528;-78
2021/12/13 06:31:13;;;;;;;5.00;4.20;;;5.50;99.90;;;6.28;100.00;99287.34;5010517;28;20443;-77
2021/12/13 06:33:50;;;;;;;5.00;4.20;;;5.50;99.90;;;6.27;100.00;99292.69;5011385;28;20454;-78
2021/12/13 06:36:29;;;;;;;6.53;4.57;;;5.50;99.90;;;6.28;100.00;99294.34;5011308;28;20526;-77
2021/12/13 06:39:04;;;;;;;7.13;5.20;;;5.50;99.90;;;6.27;100.00;99293.50;5012114;28;20447;-78
2021/12/13 06:41:43;;;;;;;6.17;4.60;;;5.50;99.90;;;6.27;100.00;99300.47;5011286;28;20940;-77
2021/12/13 06:44:24;;;;;;;5.30;4.27;;;5.50;99.90;;;6.26;100.00;99298.81;5010379;28;20498;-77
2021/12/13 06:47:00;;;;;;;6.20;5.07;;;5.50;99.90;;;6.26;100.00;99297.03;5011238;28;20501;-78
2021/12/13 06:49:37;;;;;;;7.03;4.93;;;5.50;99.90;;;6.26;100.00;99293.63;5009942;28;20455;-77
2021/12/13 06:52:20;;;;;;;5.80;4.37;;;5.50;99.90;;;6.27;100.00;99300.47;5010975;28;21038;-78
2021/12/13 06:54:57;;;;;;;15.03;5.07;;;5.60;99.90;;;6.28;100.00;99286.53;5004951;28;20502;-77
2021/12/13 06:57:37;;;;;;;8.17;4.73;;;5.60;99.90;;;6.28;100.00;99287.34;5011112;28;20818;-77
2021/12/13 07:00:16;;;;;;;7.27;5.33;;;5.60;99.90;;;6.29;100.00;99288.16;5004931;28;20478;-77
2021/12/13 07:02:51;;;;;;;6.87;5.00;;;5.60;99.90;;;6.28;100.00;99297.72;5011450;28;20521;-78
2021/12/13 07:05:26;;;;;;;5.03;4.30;;;5.50;99.90;;;6.27;100.00;99290.91;5010940;28;20449;-78
2021/12/13 07:08:01;;;;;;;8.30;5.07;;;5.50;99.90;;;6.27;100.00;99290.91;5010995;28;20460;-77
2021/12/13 07:10:38;;;;;;;6.47;4.70;;;5.50;99.90;;;6.27;100.00;99288.31;4999928;28;20458;-78
2021/12/13 07:13:26;;;;;;;9.57;4.90;;;5.50;99.90;;;6.26;100.00;99289.25;5010686;28;20617;-79
2021/12/13 07:16:02;;;;;;;7.40;5.47;;;5.40;99.90;;;6.26;100.00;99288.44;5010967;28;20518;-77
2021/12/13 07:18:48;;;;;;;11.23;5.20;;;5.50;99.90;;;6.26;100.00;99294.44;5010853;28;20457;-78
2021/12/13 07:21:23;;;;;;;8.90;5.80;;;5.50;99.90;;;6.25;100.00;99298.00;5010578;28;20835;-78
2021/12/13 07:24:02;;;;;;;7.77;5.57;;;5.50;99.90;;;6.27;100.00;99309.09;5010470;28;20502;-77
2021/12/13 07:26:35;;;;;;;10.00;5.73;;;5.50;99.90;;;6.27;100.00;99298.69;5002949;28;20470;-77
2021/12/13 07:29:11;;;;;;;8.23;5.57;;;5.60;99.90;;;6.27;100.00;99301.31;5006768;28;20451;-77
2021/12/13 07:31:44;;;;;;;8.57;5.33;;;5.50;99.90;;;6.26;100.00;99304.84;5008830;28;20502;-77
2021/12/13 07:34:18;;;;;;;7.90;5.90;;;5.40;99.90;;;6.28;100.00;99302.91;5010622;28;20844;-78
2021/12/13 07:36:58;;;;;;;7.93;5.57;;;5.50;99.90;;;6.29;100.00;99312.38;5010660;28;20457;-77
2021/12/13 07:39:32;;;;;;;9.20;5.40;;;5.50;99.90;;;6.26;100.00;99304.00;5011508;28;20917;-77
2021/12/13 07:42:10;;;;;;;12.43;5.77;;;5.40;99.90;;;6.27;100.00;99303.91;5010074;28;20457;-77
2021/12/13 07:44:45;;;;;;;13.53;6.17;;;5.40;99.90;;;6.23;100.00;99299.91;5009266;28;21062;-77
2021/12/13 07:47:20;;;;;;;13.70;5.70;;;5.40;99.90;;;6.25;100.00;99308.38;5010158;28;20807;-78
2021/12/13 07:49:58;;;;;;;8.73;5.83;;;5.50;99.90;;;6.27;100.00;99311.69;5010440;28;20458;-78
2021/12/13 07:52:33;;;;;;;8.37;5.63;;;5.50;99.90;;;6.28;100.00;99315.91;5010144;28;20999;-77
2021/12/13 07:55:19;;;;;;;10.70;4.97;;;5.50;99.90;;;6.28;100.00;99321.09;5010480;28;20454;-78
2021/12/13 07:57:50;;;;;;;7.50;5.03;;;5.50;99.90;;;6.31;100.00;99320.03;5010352;28;20903;-77
2021/12/13 08:00:33;;;;;;;8.40;5.40;;;5.50;99.90;;;6.31;100.00;99320.88;5010398;28;20450;-78
2021/12/13 08:03:12;;;;;;;7.87;5.87;;;5.50;99.90;;;6.34;100.00;99323.22;5005932;28;20550;-77
2021/12/13 08:05:48;;;;;;;11.10;6.03;;;5.50;99.90;;;6.37;100.00;99322.94;5009831;28;20438;-77
2021/12/13 08:08:24;;;;;;;11.97;5.80;;;5.60;99.90;;;6.39;100.00;99318.44;5010150;28;20462;-77
2021/12/13 08:11:01;;;;;;;11.00;5.93;;;5.60;99.90;;;6.41;100.00;99321.75;5002646;28;20438;-77
2021/12/13 08:13:34;;;;;;;6.93;5.43;;;5.60;99.90;;;6.44;100.00;99323.25;5008728;28;20470;-77
2021/12/13 08:16:08;;;;;;;9.67;5.90;;;5.70;99.90;;;6.45;100.00;99336.13;5014035;28;20454;-77
2021/12/13 08:18:41;;;;;;;7.60;5.20;;;5.70;99.90;;;6.46;100.00;99335.16;5013675;28;20516;-77
2021/12/13 08:21:20;;;;;;;10.37;6.33;;;5.80;99.90;;;6.46;100.00;99324.75;5013716;28;20471;-77
2021/12/13 08:23:58;;;;;;;8.27;5.67;;;5.70;99.90;;;6.47;100.00;99325.59;5003686;28;21003;-77
2021/12/13 08:26:36;;;;;;;8.87;5.80;;;5.70;99.90;;;6.47;100.00;99323.00;5013581;28;20466;-77
2021/12/13 08:29:17;;;;;;;8.33;6.10;;;5.70;99.90;;;6.45;100.00;99325.75;5013800;28;20804;-77
2021/12/13 08:31:52;;;;;;;8.10;5.83;;;5.70;99.90;;;6.45;100.00;99325.75;5009060;28;20457;-77
2021/12/13 08:34:31;;;;;;;9.90;5.97;;;5.70;99.90;;;6.46;100.00;99327.34;5013141;28;20458;-77
2021/12/13 08:37:12;;;;;;;10.27;6.10;;;5.70;99.90;;;6.47;100.00;99335.97;5008942;28;20450;-77
2021/12/13 08:39:43;;;;;;;12.90;5.70;;;5.70;99.90;;;6.48;100.00;99333.25;5013501;28;20453;-77
2021/12/13 08:42:21;;;;;;;8.70;5.70;;;5.70;99.90;;;6.51;100.00;99337.38;5013036;28;20447;-78
2021/12/13 08:45:03;;;;;;;11.00;6.50;;;5.70;99.90;;;6.53;100.00;99346.69;5008260;28;20521;-78
2021/12/13 08:47:41;;;;;;;9.80;6.67;;;5.80;99.90;;;6.55;100.00;99331.81;5013129;28;20450;-78
2021/12/13 08:50:19;;;;;;;8.87;5.73;;;5.80;99.90;;;6.59;100.00;99337.56;5013060;28;20454;-77
2021/12/13 08:52:57;;;;;;;9.97;6.90;;;5.90;99.90;;;6.60;100.00;99341.78;5012522;28;20459;-78
2021/12/13 08:55:32;;;;;;;9.47;6.17;;;5.90;99.90;;;6.61;100.00;99340.84;5007975;28;20467;-77
2021/12/13 08:58:17;;;;;;;10.73;6.73;;;5.90;99.90;;;6.62;100.00;99341.66;5013188;28;20458;-78
2021/12/13 09:00:59;;;;;;;9.20;6.03;;;5.90;99.90;;;6.63;100.00;99349.31;5013062;28;20451;-78
2021/12/13 09:03:39;;;;;;;10.47;6.40;;;5.90;99.90;;;6.69;100.00;99343.63;5013414;28;20526;-78
2021/12/13 09:06:33;;;;;;;9.10;5.50;;;5.90;99.90;;;6.73;100.00;99349.38;5003694;28;20450;-78
2021/12/13 09:09:12;;;;;;;9.20;5.47;;;6.00;99.90;;;6.73;100.00;99344.19;5012718;28;20454;-78
2021/12/13 09:11:56;;;;;;;10.10;6.37;;;6.00;99.90;;;6.76;100.00;99343.91;5011973;28;20447;-78
2021/12/13 09:14:38;;;;;;;7.97;5.57;;;6.00;99.90;;;6.79;100.00;99334.09;5005669;28;20457;-78
2021/12/13 09:17:16;;;;;;;9.47;5.23;;;6.10;99.90;;;6.83;100.00;99340.66;5012835;28;20546;-77
2021/12/13 09:20:00;;;;;;;10.33;6.30;;;6.10;99.90;;;6.85;100.00;99340.53;5012439;28;20514;-78
2021/12/13 09:22:35;;;;;;;8.00;5.80;;;6.10;99.90;;;6.87;100.00;99336.81;5012011;28;20443;-77
2021/12/13 09:25:12;;;;;;;6.90;4.37;;;6.10;99.90;;;6.91;100.00;99350.38;5010132;28;20497;-78
2021/12/13 09:27:54;;;;;;;8.27;6.40;;;6.20;99.90;;;6.93;100.00;99353.69;5005844;28;20462;-77
2021/12/13 09:30:41;;;;;;;9.90;6.23;;;6.30;99.90;;;6.97;100.00;99345.50;5012381;28;20450;-78
2021/12/13 09:33:19;;;;;;;8.80;5.10;;;6.30;99.90;;;7.01;100.00;99351.28;5010345;28;20446;-77
2021/12/13 09:35:54;;;;;;;9.97;6.20;;;6.30;99.90;;;7.02;100.00;99347.69;5010944;28;20465;-77
2021/12/13 09:38:38;;;;;;;8.27;5.37;;;6.30;99.90;;;7.03;100.00;99351.94;5004974;28;20485;-78
2021/12/13 09:41:28;;;;;;;7.63;5.10;;;6.30;99.90;;;7.03;100.00;99352.78;5009897;28;20525;-78
2021/12/13 09:44:19;;;;;;;8.10;5.37;;;6.30;99.90;;;7.08;100.00;99352.34;5011555;28;20516;-78
2021/12/13 09:47:01;;;;;;;8.20;5.60;;;6.40;99.90;;;7.12;100.00;99356.34;5011916;28;20450;-78
2021/12/13 09:49:38;;;;;;;6.37;4.97;;;6.40;99.90;;;7.16;100.00;99356.91;5011960;28;20574;-77
2021/12/13 09:52:15;;;;;;;8.53;4.63;;;6.50;99.90;;;7.16;100.00;99357.72;5012060;28;20469;-78
2021/12/13 09:54:53;;;;;;;7.20;4.20;;;6.50;99.90;;;7.15;100.00;99352.69;5002873;28;20454;-77
2021/12/13 09:57:34;;;;;;;5.23;4.23;;;6.40;99.90;;;7.19;100.00;99354.03;5010089;28;20455;-78
2021/12/13 10:00:12;;;;;;;5.50;4.17;;;6.50;99.90;;;7.20;100.00;99353.09;5006514;28;20824;-78
2021/12/13 10:02:51;;;;;;;4.80;4.07;;;6.50;99.90;;;7.23;100.00;99351.03;5011714;28;20498;-78
2021/12/13 10:05:28;;;;;;;6.13;3.60;;;6.50;99.90;;;7.28;100.00;99343.66;5011490;28;20506;-78
2021/12/13 10:08:07;;;;;;;4.70;4.13;;;6.60;99.90;;;7.33;100.00;99348.44;5012374;28;20451;-78
2021/12/13 10:10:44;;;;;;;5.23;4.10;;;6.70;99.90;;;7.31;100.00;99340.78;5010954;28;20537;-78
2021/12/13 10:13:21;;;;;;;6.80;4.77;;;6.60;99.90;;;7.35;100.00;99333.53;5008593;28;20590;-78
2021/12/13 10:15:58;;;;;;;4.97;4.17;;;6.70;99.90;;;7.38;100.00;99336.69;5011953;28;20524;-78
2021/12/13 10:18:34;;;;;;;5.57;4.10;;;6.70;99.90;;;7.43;100.00;99333.66;5011023;28;20450;-78
2021/12/13 10:21:09;;;;;;;5.20;3.80;;;6.80;99.90;;;7.42;100.00;99332.88;5011586;28;20482;-77
2021/12/13 10:23:47;;;;;;;6.97;4.47;;;6.70;99.90;;;7.49;100.00;99339.19;5011880;28;20450;-78
2021/12/13 10:26:31;;;;;;;8.83;4.87;;;6.80;99.90;;;7.52;100.00;99333.72;5010937;28;20597;-78
2021/12/13 10:29:03;;;;;;;6.77;4.57;;;6.80;99.90;;;7.56;100.00;99332.47;5001709;28;20842;-78
2021/12/13 10:31:42;;;;;;;5.87;4.60;;;7.00;99.90;;;7.63;100.00;99334.53;5009643;28;20449;-77
2021/12/13 10:34:17;;;;;;;6.10;4.40;;;7.00;99.90;;;7.67;100.00;99333.31;5010645;28;20455;-78
2021/12/13 10:36:54;;;;;;;6.30;4.60;;;7.00;99.90;;;7.69;100.00;99337.41;5010694;28;20967;-77
2021/12/13 10:39:31;;;;;;;6.20;4.50;;;7.00;99.90;;;7.65;100.00;99333.44;5011491;28;20839;-78
2021/12/13 10:42:10;;;;;;;4.73;3.97;;;7.00;99.90;;;7.68;100.00;99327.13;5007682;28;20447;-78
2021/12/13 10:44:44;;;;;;;5.43;3.90;;;6.90;99.90;;;7.69;100.00;99324.38;5010159;28;20490;-78
2021/12/13 10:47:23;;;;;;;5.20;3.77;;;7.00;99.90;;;7.72;100.00;99328.50;5011026;28;20443;-78
2021/12/13 10:49:56;;;;;;;7.33;4.23;;;7.00;99.90;;;7.76;100.00;99322.06;5011344;28;20513;-78
2021/12/13 10:52:35;;;;;;;5.50;4.00;;;7.00;99.90;;;7.77;100.00;99316.72;5010717;28;20456;-77
2021/12/13 10:55:16;;;;;;;5.30;3.63;;;7.10;99.90;;;7.80;100.00;99310.41;5006961;28;20845;-78
2021/12/13 10:57:49;;;;;;;4.30;3.60;;;7.10;99.90;;;7.82;100.00;99314.50;5009810;28;20457;-78
2021/12/13 11:00:27;;;;;;;3.93;3.50;;;7.10;99.90;;;7.88;100.00;99305.34;5011090;28;20447;-79
2021/12/13 11:03:03;;;;;;;7.37;4.80;;;7.20;99.90;;;7.95;100.00;99309.00;5001889;28;20469;-78
2021/12/13 11:05:37;;;;;;;7.77;4.43;;;7.40;99.90;;;8.01;100.00;99295.44;5010417;28;20836;-77
2021/12/13 11:08:13;;;;;;;11.07;4.67;;;7.50;99.90;;;8.06;100.00;99295.84;5011027;28;20446;-78
2021/12/13 11:10:48;;;;;;;8.43;5.90;;;7.60;99.90;;;8.11;100.00;99288.44;5010315;28;20455;-77
2021/12/13 11:13:28;;;;;;;6.13;4.50;;;7.70;99.90;;;8.16;100.00;99281.00;5010627;28;20457;-78
2021/12/13 11:16:04;;;;;;;6.07;4.80;;;7.80;99.90;;;8.18;100.00;99280.88;5010729;28;20486;-78